James M Cox Dayton International Airport Dayton US
ICAO: KDAY
IATA: DAY
Category: Large
Scheduled Services: Yes

Elevation: 1009 ft
TransAlt. 18000 ft.

Airport Communications:
DAYTON APP/DEP:118
ATIS:125.8
CLNC DEL:121.75
GND:121.9
DAYTON RDO:122.2
DAYTON TWR:119.9
UNICOM:122.95

KDAY Zoom In..

Runways:

(A) RW 06L length 10901 ft width 150 ft
ILS 108.90 / hdg 59

(B) RW 06R length 7285 ft width 150 ft
---- / hdg 59

(C) RW 18 length 8502 ft width 150 ft
ILS 108.30 / hdg 183

(D) RW 24L length 7285 ft width 150 ft
ILS 110.30 / hdg 239

(E) RW 24R length 10901 ft width 150 ft
ILS 111.90 / hdg 239

(F) RW 36 length 8502 ft width 150 ft
---- / hdg 3

Location; KDAY
Day. 26 / Time. 13.56 Zulu
* Altimeter: 29.89
* Temperature: 24° c. 75.2°f.
* Wind from: 230° Speed 07 kn.
Dewpoint: 19° c.
Visibility: 10 Statute Miles.
Clouds: Broken 12000 ft.
Clouds: Broken 2000 ft.

KDAY 261356Z 23007KT 10SM BKN120 BKN200 24/19 A2989 RMK AO2 SLP114 T02390194


Wind From 230°
Speed 07 kn.

 
 
jpsmedia.com for Web Design SOUNDCLOUD worldairports.se 2018   terms of use